createdAt,value
2022-10-07T00:00:16.746Z,10.90
2022-10-07T00:02:44.801Z,10.80
2022-10-07T00:05:12.794Z,10.80
2022-10-07T00:07:42.435Z,10.90
2022-10-07T00:10:10.825Z,11.30
2022-10-07T00:12:38.796Z,11.40
2022-10-07T00:15:08.207Z,11.20
2022-10-07T00:17:36.434Z,11.30
2022-10-07T00:20:06.015Z,11.40
2022-10-07T00:22:33.958Z,11.40
2022-10-07T00:25:03.269Z,11.20
2022-10-07T00:27:31.235Z,11.30
2022-10-07T00:29:59.175Z,11.30
2022-10-07T00:32:27.114Z,11.20
2022-10-07T00:34:55.065Z,11.20
2022-10-07T00:37:22.945Z,10.90
2022-10-07T00:39:50.759Z,11.10
2022-10-07T00:42:19.979Z,10.90
2022-10-07T00:44:48.563Z,10.80
2022-10-07T00:47:24.351Z,10.70
2022-10-07T00:49:54.393Z,10.90
2022-10-07T00:52:23.068Z,11.10
2022-10-07T00:54:52.918Z,11.30
2022-10-07T00:57:22.251Z,11.30
2022-10-07T00:59:50.056Z,11.30
2022-10-07T01:02:17.913Z,11.30
2022-10-07T01:04:46.233Z,11.20
2022-10-07T01:07:15.405Z,10.90
2022-10-07T01:09:43.198Z,11.10
2022-10-07T01:12:12.955Z,11.30
2022-10-07T01:14:50.029Z,11.30
2022-10-07T01:17:21.961Z,10.90
2022-10-07T01:20:08.345Z,10.80
2022-10-07T01:22:40.387Z,10.70
2022-10-07T01:25:17.341Z,10.70
2022-10-07T01:27:48.238Z,10.60
2022-10-07T01:30:16.173Z,10.50
2022-10-07T01:32:44.886Z,10.60
2022-10-07T01:35:13.942Z,10.90
2022-10-07T01:37:43.538Z,11.20
2022-10-07T01:40:13.209Z,10.90
2022-10-07T01:42:41.030Z,10.80
2022-10-07T01:45:11.428Z,10.80
2022-10-07T01:47:39.241Z,10.90
2022-10-07T01:50:11.856Z,10.90
2022-10-07T01:52:49.808Z,11.20
2022-10-07T01:55:28.490Z,11.40
2022-10-07T01:58:02.050Z,11.20
2022-10-07T02:00:31.226Z,10.90
2022-10-07T02:03:18.250Z,10.90
2022-10-07T02:05:49.939Z,11.30
2022-10-07T02:08:24.260Z,11.30
2022-10-07T02:11:00.076Z,11.00
2022-10-07T02:13:29.751Z,11.00
2022-10-07T02:16:01.901Z,11.10
2022-10-07T02:18:29.803Z,11.10
2022-10-07T02:20:57.696Z,11.10
2022-10-07T02:23:25.529Z,11.20
2022-10-07T02:25:53.853Z,11.20
2022-10-07T02:28:23.053Z,11.10
2022-10-07T02:30:54.093Z,11.20
2022-10-07T02:33:23.797Z,11.30
2022-10-07T02:35:52.894Z,11.40
2022-10-07T02:38:20.788Z,11.40
2022-10-07T02:40:52.005Z,11.30
2022-10-07T02:43:23.400Z,11.30
2022-10-07T02:45:55.165Z,11.20
2022-10-07T02:48:25.681Z,11.30
2022-10-07T02:50:55.228Z,11.30
2022-10-07T02:53:23.100Z,11.30
2022-10-07T02:55:51.309Z,11.30
2022-10-07T02:58:19.145Z,11.40
2022-10-07T03:00:48.239Z,11.30
2022-10-07T03:03:16.169Z,11.30
2022-10-07T03:05:45.530Z,11.50
2022-10-07T03:08:13.362Z,11.50
2022-10-07T03:10:41.199Z,11.70
2022-10-07T03:13:09.034Z,11.50
2022-10-07T03:15:42.044Z,11.50
2022-10-07T03:18:26.099Z,11.50
2022-10-07T03:20:55.997Z,11.40
2022-10-07T03:23:24.497Z,11.20
2022-10-07T03:25:52.810Z,11.20
2022-10-07T03:28:21.663Z,11.20
2022-10-07T03:30:49.618Z,11.30
2022-10-07T03:33:17.676Z,11.30
2022-10-07T03:35:45.494Z,11.20
2022-10-07T03:38:14.698Z,11.20
2022-10-07T03:40:44.324Z,11.20
2022-10-07T03:43:12.135Z,11.40
2022-10-07T03:45:44.500Z,11.40
2022-10-07T03:48:12.395Z,11.60
2022-10-07T03:50:40.209Z,11.50
2022-10-07T03:53:08.089Z,11.50
2022-10-07T03:55:37.598Z,11.50
2022-10-07T03:58:05.426Z,11.40
2022-10-07T04:00:33.287Z,11.50
2022-10-07T04:03:01.112Z,11.50
2022-10-07T04:05:29.228Z,11.40
2022-10-07T04:07:57.062Z,11.60
2022-10-07T04:10:24.867Z,11.60
2022-10-07T04:12:54.028Z,11.60
2022-10-07T04:15:21.826Z,11.80
2022-10-07T04:17:50.050Z,11.90
2022-10-07T04:20:18.183Z,11.90
2022-10-07T04:22:45.967Z,11.90
2022-10-07T04:25:31.349Z,12.00
2022-10-07T04:28:01.095Z,11.70
2022-10-07T04:30:32.777Z,11.70
2022-10-07T04:33:00.641Z,11.90
2022-10-07T04:35:28.414Z,11.60
2022-10-07T04:37:56.307Z,11.40
2022-10-07T04:40:24.508Z,11.30
2022-10-07T04:43:09.725Z,11.50
2022-10-07T04:45:38.900Z,11.60
2022-10-07T04:48:06.848Z,11.60
2022-10-07T04:50:36.147Z,11.70
2022-10-07T04:53:03.970Z,11.70
2022-10-07T04:55:35.841Z,11.80
2022-10-07T04:58:03.732Z,11.90
2022-10-07T05:00:31.827Z,11.90
2022-10-07T05:03:01.122Z,11.70
2022-10-07T05:05:28.978Z,11.60
2022-10-07T05:07:56.786Z,11.70
2022-10-07T05:10:24.595Z,11.70
2022-10-07T05:12:55.939Z,11.80
2022-10-07T05:15:24.355Z,11.80
2022-10-07T05:17:55.941Z,11.90
2022-10-07T05:20:25.717Z,11.90
2022-10-07T05:22:53.748Z,12.00
2022-10-07T05:25:21.859Z,11.90
2022-10-07T05:27:53.932Z,11.80
2022-10-07T05:30:21.946Z,12.00
2022-10-07T05:32:50.658Z,11.90
2022-10-07T05:35:18.510Z,11.80
2022-10-07T05:37:50.991Z,11.70
2022-10-07T05:40:19.204Z,11.70
2022-10-07T05:42:46.988Z,11.70
2022-10-07T05:45:14.987Z,11.90
2022-10-07T05:47:43.081Z,11.90
2022-10-07T05:50:11.315Z,11.80
2022-10-07T05:52:39.625Z,12.00
2022-10-07T05:55:10.068Z,12.00
2022-10-07T05:57:39.930Z,11.90
2022-10-07T06:00:08.840Z,12.10
2022-10-07T06:02:38.932Z,12.10
2022-10-07T06:05:07.613Z,12.00
2022-10-07T06:07:35.445Z,12.00
2022-10-07T06:10:20.763Z,12.00
2022-10-07T06:13:07.627Z,12.00
2022-10-07T06:15:35.467Z,12.10
2022-10-07T06:18:03.342Z,12.10
2022-10-07T06:20:31.148Z,12.10
2022-10-07T06:22:58.966Z,12.10
2022-10-07T06:25:26.805Z,12.10
2022-10-07T06:27:58.518Z,12.10
2022-10-07T06:30:26.864Z,12.20
2022-10-07T06:32:54.784Z,12.20
2022-10-07T06:35:23.067Z,12.30
2022-10-07T06:37:50.885Z,12.30
2022-10-07T06:40:18.737Z,12.30
2022-10-07T06:42:46.563Z,12.30
2022-10-07T06:45:15.932Z,12.40
2022-10-07T06:47:43.981Z,12.60
2022-10-07T06:50:12.004Z,12.70
2022-10-07T06:52:43.349Z,12.70
2022-10-07T06:55:11.549Z,12.50
2022-10-07T06:57:46.868Z,12.40
2022-10-07T07:00:16.539Z,12.30
2022-10-07T07:02:44.788Z,12.20
2022-10-07T07:05:15.439Z,12.40
2022-10-07T07:07:43.799Z,12.40
2022-10-07T07:10:11.868Z,12.40
2022-10-07T07:12:39.732Z,12.50
2022-10-07T07:15:08.534Z,12.60
2022-10-07T07:17:37.766Z,12.70
2022-10-07T07:20:06.003Z,12.70
2022-10-07T07:22:33.820Z,12.60
2022-10-07T07:25:01.815Z,12.60
2022-10-07T07:27:30.028Z,12.80
2022-10-07T07:29:58.667Z,12.80
2022-10-07T07:32:26.521Z,12.90
2022-10-07T07:34:55.940Z,12.90
2022-10-07T07:37:24.694Z,12.80
2022-10-07T07:39:52.542Z,12.80
2022-10-07T07:42:21.736Z,12.80
2022-10-07T07:44:50.036Z,12.80
2022-10-07T07:47:17.915Z,12.90
2022-10-07T07:49:45.767Z,12.80
2022-10-07T07:52:14.964Z,12.90
2022-10-07T07:54:43.805Z,12.90
2022-10-07T07:57:11.699Z,13.00
2022-10-07T07:59:39.610Z,13.30
2022-10-07T08:02:07.809Z,13.30
2022-10-07T08:04:35.956Z,13.10
2022-10-07T08:07:03.890Z,13.10
2022-10-07T08:09:33.118Z,13.00
2022-10-07T08:12:01.576Z,12.90
2022-10-07T08:14:29.561Z,12.90
2022-10-07T08:16:59.137Z,12.90
2022-10-07T08:19:27.156Z,12.90
2022-10-07T08:21:55.015Z,13.00
2022-10-07T08:24:24.963Z,12.90
2022-10-07T08:26:54.492Z,13.00
2022-10-07T08:29:22.463Z,13.10
2022-10-07T08:31:50.324Z,13.10
2022-10-07T08:34:18.143Z,13.10
2022-10-07T08:36:47.961Z,13.00
2022-10-07T08:39:15.815Z,13.10
2022-10-07T08:41:56.913Z,12.90
2022-10-07T08:44:27.864Z,13.00
2022-10-07T08:46:59.065Z,13.10
2022-10-07T08:49:32.190Z,13.30
2022-10-07T08:52:02.920Z,13.20
2022-10-07T08:54:31.378Z,13.20
2022-10-07T08:57:04.415Z,13.40
2022-10-07T08:59:32.821Z,13.50
2022-10-07T09:02:05.906Z,13.50
2022-10-07T09:04:41.128Z,13.50
2022-10-07T09:07:10.739Z,13.60
2022-10-07T09:09:40.543Z,13.70
2022-10-07T09:12:12.295Z,13.80
2022-10-07T09:14:40.904Z,13.70
2022-10-07T09:17:13.023Z,14.00
2022-10-07T09:19:42.778Z,14.10
2022-10-07T09:22:14.520Z,14.10
2022-10-07T09:27:18.370Z,14.20
2022-10-07T09:29:46.334Z,14.60
2022-10-07T09:32:14.905Z,14.60
2022-10-07T09:34:42.696Z,14.40
2022-10-07T09:37:19.092Z,14.50
2022-10-07T09:39:47.798Z,14.40
2022-10-07T09:42:36.295Z,14.40
2022-10-07T09:45:05.695Z,14.60
2022-10-07T09:47:37.056Z,14.70
2022-10-07T09:50:05.232Z,14.80
2022-10-07T09:52:33.310Z,15.00
2022-10-07T09:55:32.638Z,15.90
2022-10-07T09:58:02.717Z,16.30
2022-10-07T10:00:31.266Z,17.30
2022-10-07T10:03:05.676Z,17.50
2022-10-07T10:05:35.113Z,18.00
2022-10-07T10:08:04.594Z,18.30
2022-10-07T10:10:33.444Z,18.20
2022-10-07T10:13:04.151Z,18.20
2022-10-07T10:15:40.536Z,17.70
2022-10-07T10:18:30.690Z,17.00
2022-10-07T10:20:58.572Z,17.20
2022-10-07T10:23:30.846Z,17.70
2022-10-07T10:26:20.482Z,18.20
2022-10-07T10:28:51.218Z,18.90
2022-10-07T10:31:22.052Z,19.40
2022-10-07T10:33:51.333Z,20.00
2022-10-07T10:36:20.806Z,19.80
2022-10-07T10:38:50.991Z,19.80
2022-10-07T10:41:24.476Z,19.80
2022-10-07T10:44:00.208Z,19.50
2022-10-07T10:46:40.261Z,19.80
2022-10-07T10:49:13.925Z,20.30
2022-10-07T10:51:48.620Z,20.60
2022-10-07T10:54:21.982Z,20.40
2022-10-07T10:56:52.105Z,20.50
2022-10-07T10:59:30.117Z,20.50
2022-10-07T11:02:01.037Z,20.50
2022-10-07T11:04:35.288Z,20.00
2022-10-07T11:07:05.044Z,20.60
2022-10-07T11:09:38.503Z,21.00
2022-10-07T11:12:07.967Z,21.10
2022-10-07T11:14:45.467Z,21.10
2022-10-07T11:17:13.366Z,20.60
2022-10-07T11:19:43.248Z,21.10
2022-10-07T11:22:14.719Z,20.90
2022-10-07T11:24:43.896Z,20.60
2022-10-07T11:27:14.876Z,20.80
2022-10-07T11:29:48.354Z,21.10
2022-10-07T11:32:18.191Z,21.20
2022-10-07T11:34:54.287Z,21.10
2022-10-07T11:37:24.142Z,20.80
2022-10-07T11:39:53.431Z,20.50
2022-10-07T11:42:22.867Z,20.90
2022-10-07T11:44:55.938Z,21.00
2022-10-07T11:47:25.511Z,20.60
2022-10-07T11:49:57.812Z,20.80
2022-10-07T11:52:26.757Z,21.10
2022-10-07T11:54:59.431Z,21.10
2022-10-07T11:57:29.124Z,20.80
2022-10-07T12:00:00.198Z,20.90
2022-10-07T12:02:52.360Z,20.60
2022-10-07T12:06:06.048Z,21.00
2022-10-07T12:08:35.386Z,21.10
2022-10-07T12:11:45.456Z,21.10
2022-10-07T12:14:49.947Z,21.10
2022-10-07T12:17:24.390Z,21.40
2022-10-07T12:20:31.026Z,21.70
2022-10-07T12:23:39.255Z,21.60
2022-10-07T12:26:09.140Z,21.50
2022-10-07T12:28:45.987Z,21.20
2022-10-07T12:31:46.266Z,21.40
2022-10-07T12:34:23.235Z,21.40
2022-10-07T12:36:51.223Z,21.50
2022-10-07T12:39:35.566Z,21.60
2022-10-07T12:42:03.625Z,21.00
2022-10-07T12:44:33.575Z,21.30
2022-10-07T12:47:03.280Z,21.60
2022-10-07T12:49:36.558Z,21.60
2022-10-07T12:52:05.245Z,21.60
2022-10-07T12:54:34.159Z,21.40
2022-10-07T12:57:02.650Z,21.60
2022-10-07T12:59:48.935Z,21.50
2022-10-07T13:02:57.072Z,21.10
2022-10-07T13:05:59.344Z,21.30
2022-10-07T13:08:43.055Z,21.40
2022-10-07T13:11:47.972Z,21.00
2022-10-07T13:14:19.035Z,21.10
2022-10-07T13:16:49.472Z,21.10
2022-10-07T13:19:25.095Z,20.80
2022-10-07T13:21:56.053Z,20.70
2022-10-07T13:24:25.576Z,21.10
2022-10-07T13:26:53.456Z,21.20
2022-10-07T13:29:23.356Z,21.10
2022-10-07T13:32:06.824Z,21.00
2022-10-07T13:34:35.152Z,21.00
2022-10-07T13:37:04.400Z,20.70
2022-10-07T13:39:32.207Z,20.30
2022-10-07T13:42:02.003Z,20.30
2022-10-07T13:44:31.947Z,20.90
2022-10-07T13:47:00.432Z,20.70
2022-10-07T13:49:29.934Z,21.00
2022-10-07T13:51:59.014Z,20.80
2022-10-07T13:54:29.014Z,20.90
2022-10-07T13:56:57.327Z,20.40
2022-10-07T13:59:25.155Z,20.40
2022-10-07T14:01:53.821Z,19.90
2022-10-07T14:04:28.523Z,19.90
2022-10-07T14:06:58.694Z,19.80
2022-10-07T14:09:37.435Z,19.90
2022-10-07T14:12:06.358Z,19.90
2022-10-07T14:14:36.427Z,19.70
2022-10-07T14:17:10.581Z,19.60
2022-10-07T14:19:38.391Z,19.60
2022-10-07T14:22:14.683Z,19.90
2022-10-07T14:24:43.895Z,19.80
2022-10-07T14:27:40.470Z,19.80
2022-10-07T14:30:27.200Z,19.70
2022-10-07T14:33:29.522Z,19.50
2022-10-07T14:36:10.112Z,19.50
2022-10-07T14:38:37.951Z,19.10
2022-10-07T14:44:55.386Z,19.50
2022-10-07T14:47:24.720Z,19.40
2022-10-07T14:49:53.244Z,19.20
2022-10-07T14:52:23.358Z,19.00
2022-10-07T14:54:51.278Z,19.00
2022-10-07T14:57:19.309Z,19.00
2022-10-07T14:59:47.698Z,18.80
2022-10-07T15:02:17.317Z,18.80
2022-10-07T15:04:45.574Z,18.70
2022-10-07T15:07:13.948Z,18.70
2022-10-07T15:09:41.920Z,18.80
2022-10-07T15:12:10.740Z,18.80
2022-10-07T15:14:38.607Z,18.70
2022-10-07T15:17:08.433Z,18.50
2022-10-07T15:19:37.727Z,18.40
2022-10-07T15:22:05.654Z,18.30
2022-10-07T15:24:34.185Z,18.20
2022-10-07T15:27:02.505Z,18.30
2022-10-07T15:29:30.327Z,18.40
2022-10-07T15:31:58.193Z,18.20
2022-10-07T15:34:27.435Z,18.30
2022-10-07T15:36:56.717Z,18.20
2022-10-07T15:39:26.318Z,18.10
2022-10-07T15:41:54.480Z,17.90
2022-10-07T15:44:23.112Z,17.80
2022-10-07T15:46:53.625Z,17.80
2022-10-07T15:49:22.092Z,17.60
2022-10-07T15:51:50.168Z,17.60
2022-10-07T15:54:20.821Z,17.50
2022-10-07T15:56:50.236Z,17.40
2022-10-07T15:59:18.203Z,17.40
2022-10-07T16:01:46.315Z,17.30
2022-10-07T16:04:15.234Z,17.30
2022-10-07T16:06:49.542Z,17.10
2022-10-07T16:09:19.081Z,17.10
2022-10-07T16:11:47.180Z,17.00
2022-10-07T16:14:15.246Z,16.80
2022-10-07T16:16:43.147Z,16.80
2022-10-07T16:19:12.231Z,16.80
2022-10-07T16:21:40.727Z,16.80
2022-10-07T16:24:09.572Z,16.60
2022-10-07T16:26:38.859Z,16.40
2022-10-07T16:29:25.315Z,16.50
2022-10-07T16:31:58.297Z,16.30
2022-10-07T16:34:27.241Z,16.20
2022-10-07T16:36:55.138Z,16.30
2022-10-07T16:39:23.009Z,16.20
2022-10-07T16:41:52.506Z,16.10
2022-10-07T16:44:20.464Z,16.00
2022-10-07T16:46:48.508Z,16.10
2022-10-07T16:49:17.675Z,16.00
2022-10-07T16:51:46.472Z,15.80
2022-10-07T16:54:15.874Z,15.90
2022-10-07T16:56:46.379Z,16.00
2022-10-07T16:59:21.882Z,15.90
2022-10-07T17:01:50.798Z,15.90
2022-10-07T17:04:19.014Z,15.70
2022-10-07T17:06:46.972Z,15.50
2022-10-07T17:09:14.845Z,15.50
2022-10-07T17:11:42.680Z,15.50
2022-10-07T17:14:11.305Z,15.40
2022-10-07T17:16:42.110Z,15.40
2022-10-07T17:19:11.610Z,15.30
2022-10-07T17:21:41.804Z,15.30
2022-10-07T17:24:10.009Z,15.20
2022-10-07T17:26:38.360Z,15.00
2022-10-07T17:29:07.902Z,14.90
2022-10-07T17:31:36.138Z,14.80
2022-10-07T17:34:05.484Z,15.00
2022-10-07T17:36:33.577Z,15.00
2022-10-07T17:39:01.604Z,15.00
2022-10-07T17:41:30.330Z,14.70
2022-10-07T17:43:59.013Z,14.70
2022-10-07T17:46:28.119Z,14.80
2022-10-07T17:48:57.386Z,14.70
2022-10-07T17:51:28.058Z,14.60
2022-10-07T17:53:56.420Z,14.50
2022-10-07T17:56:24.415Z,14.40
2022-10-07T17:58:52.369Z,14.50
2022-10-07T18:01:23.743Z,14.40
2022-10-07T18:03:52.697Z,14.20
2022-10-07T18:06:20.668Z,14.30
2022-10-07T18:08:49.890Z,14.20
2022-10-07T18:11:17.816Z,14.20
2022-10-07T18:14:03.279Z,14.10
2022-10-07T18:16:32.722Z,14.10
2022-10-07T18:19:00.608Z,14.10
2022-10-07T18:21:30.442Z,14.00
2022-10-07T18:23:59.604Z,14.00
2022-10-07T18:26:28.888Z,13.90
2022-10-07T18:28:57.578Z,13.90
2022-10-07T18:31:26.396Z,13.80
2022-10-07T18:33:54.304Z,13.70
2022-10-07T18:36:22.278Z,13.70
2022-10-07T18:38:50.177Z,13.70
2022-10-07T18:41:19.511Z,13.60
2022-10-07T18:43:48.086Z,13.50
2022-10-07T18:46:17.041Z,13.50
2022-10-07T18:48:47.892Z,13.30
2022-10-07T18:51:15.975Z,13.30
2022-10-07T18:53:44.850Z,13.30
2022-10-07T18:56:13.694Z,13.30
2022-10-07T18:58:44.007Z,13.30
2022-10-07T19:01:13.587Z,13.30
2022-10-07T19:03:41.601Z,13.20
2022-10-07T19:06:11.287Z,13.10
2022-10-07T19:08:39.282Z,13.00
2022-10-07T19:11:07.593Z,12.90
2022-10-07T19:13:50.921Z,13.00
2022-10-07T19:16:21.119Z,13.00
2022-10-07T19:18:50.241Z,13.00
2022-10-07T19:21:19.926Z,13.00
2022-10-07T19:23:48.314Z,13.00
2022-10-07T19:26:21.128Z,13.00
2022-10-07T19:28:50.089Z,12.90
2022-10-07T19:31:21.142Z,13.00
2022-10-07T19:33:50.047Z,13.00
2022-10-07T19:36:18.713Z,12.90
2022-10-07T19:38:47.234Z,12.80
2022-10-07T19:41:16.503Z,12.80
2022-10-07T19:43:45.263Z,12.90
2022-10-07T19:46:13.227Z,12.70
2022-10-07T19:48:42.553Z,12.70
2022-10-07T19:51:12.182Z,12.70
2022-10-07T19:53:46.652Z,12.70
2022-10-07T20:00:10.205Z,12.30
2022-10-07T20:02:38.119Z,12.30
2022-10-07T20:05:09.597Z,12.30
2022-10-07T20:07:37.403Z,12.30
2022-10-07T20:10:07.959Z,12.10
2022-10-07T20:12:35.831Z,12.20
2022-10-07T20:15:03.730Z,12.20
2022-10-07T20:17:31.556Z,12.20
2022-10-07T20:19:59.501Z,12.30
2022-10-07T20:22:28.938Z,12.00
2022-10-07T20:24:57.274Z,11.90
2022-10-07T20:27:25.196Z,11.80
2022-10-07T20:29:59.024Z,11.70
2022-10-07T20:32:27.288Z,11.80
2022-10-07T20:34:55.216Z,11.80
2022-10-07T20:37:23.055Z,12.00
2022-10-07T20:40:09.671Z,11.90
2022-10-07T20:42:37.543Z,11.70
2022-10-07T20:45:06.208Z,11.70
2022-10-07T20:47:34.821Z,11.70
2022-10-07T20:50:02.915Z,11.60
2022-10-07T20:52:32.051Z,11.50
2022-10-07T20:55:01.243Z,11.40
2022-10-07T20:57:33.321Z,11.30
2022-10-07T21:00:01.174Z,11.40
2022-10-07T21:02:29.218Z,11.60
2022-10-07T21:04:59.110Z,11.60
2022-10-07T21:07:27.473Z,11.50
2022-10-07T21:09:55.367Z,11.30
2022-10-07T21:12:24.645Z,11.20
2022-10-07T21:14:54.984Z,11.20
2022-10-07T21:17:24.871Z,11.20
2022-10-07T21:19:52.778Z,11.40
2022-10-07T21:22:23.685Z,11.10
2022-10-07T21:24:51.577Z,10.90
2022-10-07T21:27:19.461Z,10.90
2022-10-07T21:29:48.888Z,10.80
2022-10-07T21:32:16.797Z,11.00
2022-10-07T21:34:44.681Z,10.90
2022-10-07T21:37:12.564Z,10.70
2022-10-07T21:39:40.426Z,10.70
2022-10-07T21:42:08.602Z,10.60
2022-10-07T21:44:36.445Z,10.60
2022-10-07T21:47:05.818Z,10.60
2022-10-07T21:49:33.647Z,10.70
2022-10-07T21:52:01.519Z,10.60
2022-10-07T21:54:30.243Z,10.60
2022-10-07T21:56:58.102Z,10.60
2022-10-07T21:59:25.886Z,10.70
2022-10-07T22:01:53.845Z,10.70
2022-10-07T22:04:23.162Z,10.90
2022-10-07T22:07:08.382Z,11.00
2022-10-07T22:09:36.357Z,10.70
2022-10-07T22:12:04.460Z,10.80
2022-10-07T22:14:32.551Z,10.80
2022-10-07T22:17:00.394Z,10.90
2022-10-07T22:19:29.601Z,10.80
2022-10-07T22:21:57.459Z,10.80
2022-10-07T22:24:25.384Z,10.90
2022-10-07T22:26:53.241Z,10.70
2022-10-07T22:29:22.892Z,10.70
2022-10-07T22:31:50.750Z,10.50
2022-10-07T22:34:36.065Z,10.60
2022-10-07T22:37:05.346Z,10.40
2022-10-07T22:39:33.172Z,10.60
2022-10-07T22:42:01.527Z,10.60
2022-10-07T22:44:29.443Z,10.90
2022-10-07T22:46:59.188Z,11.00
2022-10-07T22:49:30.035Z,10.70
2022-10-07T22:51:59.793Z,10.70
2022-10-07T22:54:29.802Z,10.70
2022-10-07T22:56:57.693Z,10.50
2022-10-07T22:59:25.715Z,10.50
2022-10-07T23:01:53.624Z,10.50
2022-10-07T23:04:21.631Z,10.40
2022-10-07T23:06:49.638Z,10.70
2022-10-07T23:09:17.535Z,10.70
2022-10-07T23:11:46.793Z,10.60
2022-10-07T23:14:14.707Z,10.80
2022-10-07T23:16:44.173Z,10.60
2022-10-07T23:19:12.175Z,10.70
2022-10-07T23:21:42.177Z,10.30
2022-10-07T23:24:11.167Z,10.30
2022-10-07T23:26:39.012Z,10.20
2022-10-07T23:29:08.622Z,10.10
2022-10-07T23:31:36.610Z,10.00
2022-10-07T23:34:04.864Z,10.20
2022-10-07T23:36:32.959Z,10.20
2022-10-07T23:39:03.770Z,10.20
2022-10-07T23:41:32.862Z,10.30
2022-10-07T23:44:01.976Z,10.30
2022-10-07T23:46:33.800Z,10.10
2022-10-07T23:49:02.164Z,9.90
2022-10-07T23:51:31.001Z,9.80
2022-10-07T23:53:58.983Z,10.50
2022-10-07T23:56:26.934Z,11.20
2022-10-07T23:58:54.815Z,10.60
